sensor_id;sensor_type;location;lat;lon;timestamp;P1;durP1;ratioP1;P2;durP2;ratioP2
29422;SDS011;16399;51.686;8.684;2023-02-16T00:00:16;23.37;;;11.87;;
29422;SDS011;16399;51.686;8.684;2023-02-16T00:03:21;25.05;;;12.75;;
29422;SDS011;16399;51.686;8.684;2023-02-16T00:06:23;27.50;;;12.40;;
29422;SDS011;16399;51.686;8.684;2023-02-16T00:09:26;26.23;;;12.28;;
29422;SDS011;16399;51.686;8.684;2023-02-16T00:12:28;24.72;;;11.85;;
29422;SDS011;16399;51.686;8.684;2023-02-16T00:15:48;24.70;;;11.33;;
29422;SDS011;16399;51.686;8.684;2023-02-16T00:18:50;21.23;;;11.53;;
29422;SDS011;16399;51.686;8.684;2023-02-16T00:21:54;24.43;;;11.03;;
29422;SDS011;16399;51.686;8.684;2023-02-16T00:24:58;24.50;;;11.68;;
29422;SDS011;16399;51.686;8.684;2023-02-16T00:28:06;26.10;;;12.20;;
29422;SDS011;16399;51.686;8.684;2023-02-16T00:31:05;23.67;;;11.75;;
29422;SDS011;16399;51.686;8.684;2023-02-16T00:37:32;25.80;;;11.73;;
29422;SDS011;16399;51.686;8.684;2023-02-16T00:40:34;24.20;;;11.80;;
29422;SDS011;16399;51.686;8.684;2023-02-16T00:43:37;29.72;;;12.80;;
29422;SDS011;16399;51.686;8.684;2023-02-16T00:46:40;28.57;;;12.23;;
29422;SDS011;16399;51.686;8.684;2023-02-16T00:49:42;25.77;;;12.40;;
29422;SDS011;16399;51.686;8.684;2023-02-16T00:52:45;29.05;;;13.00;;
29422;SDS011;16399;51.686;8.684;2023-02-16T00:55:48;29.63;;;12.93;;
29422;SDS011;16399;51.686;8.684;2023-02-16T00:58:50;28.23;;;12.33;;
29422;SDS011;16399;51.686;8.684;2023-02-16T01:01:53;29.50;;;12.82;;
29422;SDS011;16399;51.686;8.684;2023-02-16T01:04:57;27.62;;;12.78;;
29422;SDS011;16399;51.686;8.684;2023-02-16T01:07:59;23.18;;;12.05;;
29422;SDS011;16399;51.686;8.684;2023-02-16T01:11:20;24.92;;;13.20;;
29422;SDS011;16399;51.686;8.684;2023-02-16T01:14:23;28.40;;;13.40;;
29422;SDS011;16399;51.686;8.684;2023-02-16T01:17:26;29.87;;;13.45;;
29422;SDS011;16399;51.686;8.684;2023-02-16T01:20:28;25.15;;;12.88;;
29422;SDS011;16399;51.686;8.684;2023-02-16T01:23:31;29.87;;;12.95;;
29422;SDS011;16399;51.686;8.684;2023-02-16T01:26:37;28.60;;;13.40;;
29422;SDS011;16399;51.686;8.684;2023-02-16T01:29:42;29.15;;;12.98;;
29422;SDS011;16399;51.686;8.684;2023-02-16T01:32:44;28.80;;;12.53;;
29422;SDS011;16399;51.686;8.684;2023-02-16T01:35:49;26.07;;;12.40;;
29422;SDS011;16399;51.686;8.684;2023-02-16T01:38:53;26.57;;;12.80;;
29422;SDS011;16399;51.686;8.684;2023-02-16T01:42:14;25.77;;;13.05;;
29422;SDS011;16399;51.686;8.684;2023-02-16T01:45:17;25.82;;;11.83;;
29422;SDS011;16399;51.686;8.684;2023-02-16T01:48:27;26.10;;;13.43;;
29422;SDS011;16399;51.686;8.684;2023-02-16T01:51:34;27.22;;;12.60;;
29422;SDS011;16399;51.686;8.684;2023-02-16T01:54:42;28.92;;;13.20;;
29422;SDS011;16399;51.686;8.684;2023-02-16T01:57:55;31.60;;;14.40;;
29422;SDS011;16399;51.686;8.684;2023-02-16T02:04:00;26.12;;;11.95;;
29422;SDS011;16399;51.686;8.684;2023-02-16T02:07:27;31.05;;;15.28;;
29422;SDS011;16399;51.686;8.684;2023-02-16T02:13:57;29.12;;;13.83;;
29422;SDS011;16399;51.686;8.684;2023-02-16T02:17:12;26.37;;;13.30;;
29422;SDS011;16399;51.686;8.684;2023-02-16T02:24:29;33.05;;;13.32;;
29422;SDS011;16399;51.686;8.684;2023-02-16T02:27:31;29.42;;;13.93;;
29422;SDS011;16399;51.686;8.684;2023-02-16T02:41:23;30.60;;;13.85;;
29422;SDS011;16399;51.686;8.684;2023-02-16T02:44:38;31.82;;;13.28;;
29422;SDS011;16399;51.686;8.684;2023-02-16T02:47:45;35.63;;;15.95;;
29422;SDS011;16399;51.686;8.684;2023-02-16T02:50:48;32.60;;;14.50;;
29422;SDS011;16399;51.686;8.684;2023-02-16T02:54:18;34.53;;;14.83;;
29422;SDS011;16399;51.686;8.684;2023-02-16T02:57:45;28.20;;;13.32;;
29422;SDS011;16399;51.686;8.684;2023-02-16T03:01:08;34.50;;;14.78;;
29422;SDS011;16399;51.686;8.684;2023-02-16T03:04:12;31.47;;;14.53;;
29422;SDS011;16399;51.686;8.684;2023-02-16T03:10:22;34.50;;;14.85;;
29422;SDS011;16399;51.686;8.684;2023-02-16T03:13:46;32.38;;;14.07;;
29422;SDS011;16399;51.686;8.684;2023-02-16T03:16:56;29.67;;;13.98;;
29422;SDS011;16399;51.686;8.684;2023-02-16T03:20:15;33.15;;;14.38;;
29422;SDS011;16399;51.686;8.684;2023-02-16T03:23:35;33.20;;;14.80;;
29422;SDS011;16399;51.686;8.684;2023-02-16T03:26:59;34.80;;;15.25;;
29422;SDS011;16399;51.686;8.684;2023-02-16T03:30:20;34.78;;;14.58;;
29422;SDS011;16399;51.686;8.684;2023-02-16T03:33:24;34.95;;;14.70;;
29422;SDS011;16399;51.686;8.684;2023-02-16T03:36:28;33.73;;;15.10;;
29422;SDS011;16399;51.686;8.684;2023-02-16T03:39:32;31.75;;;14.95;;
29422;SDS011;16399;51.686;8.684;2023-02-16T03:42:36;32.60;;;15.35;;
29422;SDS011;16399;51.686;8.684;2023-02-16T03:45:39;39.55;;;16.97;;
29422;SDS011;16399;51.686;8.684;2023-02-16T03:51:45;35.98;;;16.10;;
29422;SDS011;16399;51.686;8.684;2023-02-16T03:54:47;38.80;;;17.40;;
29422;SDS011;16399;51.686;8.684;2023-02-16T03:57:50;43.70;;;17.10;;
29422;SDS011;16399;51.686;8.684;2023-02-16T04:00:52;36.63;;;17.20;;
29422;SDS011;16399;51.686;8.684;2023-02-16T04:03:54;33.83;;;15.58;;
29422;SDS011;16399;51.686;8.684;2023-02-16T04:06:57;36.05;;;15.50;;
29422;SDS011;16399;51.686;8.684;2023-02-16T04:09:59;37.65;;;16.07;;
29422;SDS011;16399;51.686;8.684;2023-02-16T04:13:01;49.48;;;18.82;;
29422;SDS011;16399;51.686;8.684;2023-02-16T04:16:04;36.63;;;15.85;;
29422;SDS011;16399;51.686;8.684;2023-02-16T04:19:06;40.12;;;16.85;;
29422;SDS011;16399;51.686;8.684;2023-02-16T04:22:08;42.70;;;17.92;;
29422;SDS011;16399;51.686;8.684;2023-02-16T04:25:11;43.73;;;17.15;;
29422;SDS011;16399;51.686;8.684;2023-02-16T04:28:15;34.47;;;15.40;;
29422;SDS011;16399;51.686;8.684;2023-02-16T04:31:17;36.25;;;16.42;;
29422;SDS011;16399;51.686;8.684;2023-02-16T04:34:19;35.45;;;16.48;;
29422;SDS011;16399;51.686;8.684;2023-02-16T04:37:21;30.37;;;14.73;;
29422;SDS011;16399;51.686;8.684;2023-02-16T04:40:24;34.13;;;15.28;;
29422;SDS011;16399;51.686;8.684;2023-02-16T04:43:26;37.20;;;15.05;;
29422;SDS011;16399;51.686;8.684;2023-02-16T04:46:28;31.52;;;15.28;;
29422;SDS011;16399;51.686;8.684;2023-02-16T04:49:31;32.78;;;15.30;;
29422;SDS011;16399;51.686;8.684;2023-02-16T04:52:33;33.88;;;15.30;;
29422;SDS011;16399;51.686;8.684;2023-02-16T04:55:37;30.72;;;14.60;;
29422;SDS011;16399;51.686;8.684;2023-02-16T04:58:39;31.42;;;15.00;;
29422;SDS011;16399;51.686;8.684;2023-02-16T05:01:42;36.23;;;16.20;;
29422;SDS011;16399;51.686;8.684;2023-02-16T05:04:44;35.08;;;16.82;;
29422;SDS011;16399;51.686;8.684;2023-02-16T05:07:46;153.18;;;59.93;;
29422;SDS011;16399;51.686;8.684;2023-02-16T05:10:49;152.90;;;68.37;;
29422;SDS011;16399;51.686;8.684;2023-02-16T05:13:54;62.27;;;28.23;;
29422;SDS011;16399;51.686;8.684;2023-02-16T05:17:22;56.85;;;27.25;;
29422;SDS011;16399;51.686;8.684;2023-02-16T05:20:26;53.15;;;27.27;;
29422;SDS011;16399;51.686;8.684;2023-02-16T05:23:29;41.92;;;23.22;;
29422;SDS011;16399;51.686;8.684;2023-02-16T05:26:32;35.38;;;16.82;;
29422;SDS011;16399;51.686;8.684;2023-02-16T05:29:35;48.17;;;27.05;;
29422;SDS011;16399;51.686;8.684;2023-02-16T05:32:38;35.78;;;17.27;;
29422;SDS011;16399;51.686;8.684;2023-02-16T05:35:40;35.65;;;16.62;;
29422;SDS011;16399;51.686;8.684;2023-02-16T05:38:42;36.48;;;18.02;;
29422;SDS011;16399;51.686;8.684;2023-02-16T05:41:44;34.90;;;16.55;;
29422;SDS011;16399;51.686;8.684;2023-02-16T05:44:47;37.05;;;18.57;;
29422;SDS011;16399;51.686;8.684;2023-02-16T05:47:49;31.07;;;15.10;;
29422;SDS011;16399;51.686;8.684;2023-02-16T05:50:53;32.65;;;15.35;;
29422;SDS011;16399;51.686;8.684;2023-02-16T05:53:55;36.00;;;17.00;;
29422;SDS011;16399;51.686;8.684;2023-02-16T05:56:57;35.65;;;15.53;;
29422;SDS011;16399;51.686;8.684;2023-02-16T06:00:00;32.25;;;14.90;;
29422;SDS011;16399;51.686;8.684;2023-02-16T06:03:03;28.77;;;14.95;;
29422;SDS011;16399;51.686;8.684;2023-02-16T06:06:06;30.70;;;15.75;;
29422;SDS011;16399;51.686;8.684;2023-02-16T06:09:09;34.50;;;15.77;;
29422;SDS011;16399;51.686;8.684;2023-02-16T06:12:11;38.15;;;21.70;;
29422;SDS011;16399;51.686;8.684;2023-02-16T06:15:14;32.13;;;15.43;;
29422;SDS011;16399;51.686;8.684;2023-02-16T06:18:17;33.28;;;16.73;;
29422;SDS011;16399;51.686;8.684;2023-02-16T06:21:20;33.95;;;16.35;;
29422;SDS011;16399;51.686;8.684;2023-02-16T06:24:22;28.40;;;14.87;;
29422;SDS011;16399;51.686;8.684;2023-02-16T06:27:25;34.18;;;14.95;;
29422;SDS011;16399;51.686;8.684;2023-02-16T06:30:28;31.25;;;15.68;;
29422;SDS011;16399;51.686;8.684;2023-02-16T06:33:30;28.12;;;14.73;;
29422;SDS011;16399;51.686;8.684;2023-02-16T06:36:33;30.88;;;14.47;;
29422;SDS011;16399;51.686;8.684;2023-02-16T06:39:36;33.35;;;15.80;;
29422;SDS011;16399;51.686;8.684;2023-02-16T06:42:39;32.90;;;14.87;;
29422;SDS011;16399;51.686;8.684;2023-02-16T06:45:42;30.37;;;14.05;;
29422;SDS011;16399;51.686;8.684;2023-02-16T06:48:44;33.55;;;14.87;;
29422;SDS011;16399;51.686;8.684;2023-02-16T06:51:47;35.80;;;14.58;;
29422;SDS011;16399;51.686;8.684;2023-02-16T06:54:50;31.60;;;14.50;;
29422;SDS011;16399;51.686;8.684;2023-02-16T06:57:52;30.52;;;14.45;;
29422;SDS011;16399;51.686;8.684;2023-02-16T07:00:54;33.42;;;14.70;;
29422;SDS011;16399;51.686;8.684;2023-02-16T07:03:57;29.50;;;14.47;;
29422;SDS011;16399;51.686;8.684;2023-02-16T07:06:59;28.65;;;14.05;;
29422;SDS011;16399;51.686;8.684;2023-02-16T07:10:01;28.38;;;13.55;;
29422;SDS011;16399;51.686;8.684;2023-02-16T07:13:04;30.77;;;14.68;;
29422;SDS011;16399;51.686;8.684;2023-02-16T07:16:06;29.18;;;13.22;;
29422;SDS011;16399;51.686;8.684;2023-02-16T07:19:09;29.32;;;13.50;;
29422;SDS011;16399;51.686;8.684;2023-02-16T07:22:11;29.45;;;13.50;;
29422;SDS011;16399;51.686;8.684;2023-02-16T07:25:13;25.10;;;13.62;;
29422;SDS011;16399;51.686;8.684;2023-02-16T07:28:16;32.33;;;14.05;;
29422;SDS011;16399;51.686;8.684;2023-02-16T07:31:19;28.70;;;13.85;;
29422;SDS011;16399;51.686;8.684;2023-02-16T07:34:21;31.48;;;13.40;;
29422;SDS011;16399;51.686;8.684;2023-02-16T07:37:23;27.40;;;13.45;;
29422;SDS011;16399;51.686;8.684;2023-02-16T07:40:26;27.48;;;13.68;;
29422;SDS011;16399;51.686;8.684;2023-02-16T07:43:28;26.12;;;12.50;;
29422;SDS011;16399;51.686;8.684;2023-02-16T07:46:31;30.70;;;13.95;;
29422;SDS011;16399;51.686;8.684;2023-02-16T07:49:33;25.45;;;12.50;;
29422;SDS011;16399;51.686;8.684;2023-02-16T07:52:35;32.35;;;14.40;;
29422;SDS011;16399;51.686;8.684;2023-02-16T07:55:38;25.95;;;12.43;;
29422;SDS011;16399;51.686;8.684;2023-02-16T07:58:41;27.30;;;13.85;;
29422;SDS011;16399;51.686;8.684;2023-02-16T08:01:43;26.05;;;13.03;;
29422;SDS011;16399;51.686;8.684;2023-02-16T08:04:46;26.50;;;12.88;;
29422;SDS011;16399;51.686;8.684;2023-02-16T08:07:49;28.30;;;11.85;;
29422;SDS011;16399;51.686;8.684;2023-02-16T08:10:51;26.82;;;12.90;;
29422;SDS011;16399;51.686;8.684;2023-02-16T08:13:54;25.82;;;12.68;;
29422;SDS011;16399;51.686;8.684;2023-02-16T08:16:56;23.18;;;12.50;;
29422;SDS011;16399;51.686;8.684;2023-02-16T08:19:58;23.87;;;12.18;;
29422;SDS011;16399;51.686;8.684;2023-02-16T08:23:00;24.63;;;12.82;;
29422;SDS011;16399;51.686;8.684;2023-02-16T08:26:07;25.23;;;12.45;;
29422;SDS011;16399;51.686;8.684;2023-02-16T08:29:10;29.10;;;12.53;;
29422;SDS011;16399;51.686;8.684;2023-02-16T08:32:14;24.43;;;11.73;;
29422;SDS011;16399;51.686;8.684;2023-02-16T08:35:16;23.12;;;12.03;;
29422;SDS011;16399;51.686;8.684;2023-02-16T08:38:18;21.68;;;11.85;;
29422;SDS011;16399;51.686;8.684;2023-02-16T08:41:22;25.85;;;12.15;;
29422;SDS011;16399;51.686;8.684;2023-02-16T08:44:26;21.07;;;12.07;;
29422;SDS011;16399;51.686;8.684;2023-02-16T08:47:29;22.15;;;12.03;;
29422;SDS011;16399;51.686;8.684;2023-02-16T08:53:55;24.95;;;12.78;;
29422;SDS011;16399;51.686;8.684;2023-02-16T08:56:59;25.68;;;12.63;;
29422;SDS011;16399;51.686;8.684;2023-02-16T09:00:02;25.70;;;12.13;;
29422;SDS011;16399;51.686;8.684;2023-02-16T09:03:23;22.27;;;11.78;;
29422;SDS011;16399;51.686;8.684;2023-02-16T09:06:25;20.88;;;11.12;;
29422;SDS011;16399;51.686;8.684;2023-02-16T09:09:28;21.35;;;11.15;;
29422;SDS011;16399;51.686;8.684;2023-02-16T09:12:31;22.82;;;12.05;;
29422;SDS011;16399;51.686;8.684;2023-02-16T09:15:35;28.32;;;11.83;;
29422;SDS011;16399;51.686;8.684;2023-02-16T09:18:38;23.92;;;12.33;;
29422;SDS011;16399;51.686;8.684;2023-02-16T09:21:40;24.27;;;11.40;;
29422;SDS011;16399;51.686;8.684;2023-02-16T09:24:44;23.05;;;11.28;;
29422;SDS011;16399;51.686;8.684;2023-02-16T09:27:46;23.70;;;11.43;;
29422;SDS011;16399;51.686;8.684;2023-02-16T09:30:49;21.35;;;11.12;;
29422;SDS011;16399;51.686;8.684;2023-02-16T09:33:52;20.12;;;11.05;;
29422;SDS011;16399;51.686;8.684;2023-02-16T09:39:57;19.52;;;10.58;;
29422;SDS011;16399;51.686;8.684;2023-02-16T09:46:22;22.55;;;11.48;;
29422;SDS011;16399;51.686;8.684;2023-02-16T09:49:34;20.40;;;11.40;;
29422;SDS011;16399;51.686;8.684;2023-02-16T09:52:39;19.40;;;10.20;;
29422;SDS011;16399;51.686;8.684;2023-02-16T09:55:53;22.00;;;11.20;;
29422;SDS011;16399;51.686;8.684;2023-02-16T09:58:58;20.68;;;10.93;;
29422;SDS011;16399;51.686;8.684;2023-02-16T10:02:25;19.57;;;10.78;;
29422;SDS011;16399;51.686;8.684;2023-02-16T10:05:42;21.93;;;10.85;;
29422;SDS011;16399;51.686;8.684;2023-02-16T10:08:52;21.10;;;10.85;;
29422;SDS011;16399;51.686;8.684;2023-02-16T10:12:07;20.92;;;11.10;;
29422;SDS011;16399;51.686;8.684;2023-02-16T10:15:14;20.48;;;11.78;;
29422;SDS011;16399;51.686;8.684;2023-02-16T10:18:27;20.85;;;9.90;;
29422;SDS011;16399;51.686;8.684;2023-02-16T10:21:33;20.17;;;10.90;;
29422;SDS011;16399;51.686;8.684;2023-02-16T10:24:45;18.17;;;10.40;;
29422;SDS011;16399;51.686;8.684;2023-02-16T10:27:46;20.60;;;10.35;;
29422;SDS011;16399;51.686;8.684;2023-02-16T10:30:52;21.55;;;11.68;;
29422;SDS011;16399;51.686;8.684;2023-02-16T10:34:08;22.82;;;10.05;;
29422;SDS011;16399;51.686;8.684;2023-02-16T10:40:55;19.92;;;10.55;;
29422;SDS011;16399;51.686;8.684;2023-02-16T10:44:04;18.07;;;10.78;;
29422;SDS011;16399;51.686;8.684;2023-02-16T10:47:28;19.20;;;10.45;;
29422;SDS011;16399;51.686;8.684;2023-02-16T10:53:50;20.75;;;10.58;;
29422;SDS011;16399;51.686;8.684;2023-02-16T10:57:01;20.40;;;10.53;;
29422;SDS011;16399;51.686;8.684;2023-02-16T11:00:06;19.23;;;10.72;;
29422;SDS011;16399;51.686;8.684;2023-02-16T11:03:11;19.42;;;11.30;;
29422;SDS011;16399;51.686;8.684;2023-02-16T11:06:24;17.67;;;10.03;;
29422;SDS011;16399;51.686;8.684;2023-02-16T11:09:26;20.92;;;10.58;;
29422;SDS011;16399;51.686;8.684;2023-02-16T11:12:30;18.55;;;9.98;;
29422;SDS011;16399;51.686;8.684;2023-02-16T11:15:36;17.32;;;10.23;;
29422;SDS011;16399;51.686;8.684;2023-02-16T11:18:41;22.93;;;11.22;;
29422;SDS011;16399;51.686;8.684;2023-02-16T11:21:47;21.90;;;12.03;;
29422;SDS011;16399;51.686;8.684;2023-02-16T11:24:51;20.50;;;11.30;;
29422;SDS011;16399;51.686;8.684;2023-02-16T11:27:55;20.68;;;11.75;;
29422;SDS011;16399;51.686;8.684;2023-02-16T11:31:11;22.27;;;11.48;;
29422;SDS011;16399;51.686;8.684;2023-02-16T11:34:31;19.45;;;9.93;;
29422;SDS011;16399;51.686;8.684;2023-02-16T11:37:35;18.98;;;11.03;;
29422;SDS011;16399;51.686;8.684;2023-02-16T11:40:40;19.95;;;11.73;;
29422;SDS011;16399;51.686;8.684;2023-02-16T11:43:44;24.30;;;13.07;;
29422;SDS011;16399;51.686;8.684;2023-02-16T11:46:46;22.90;;;12.78;;
29422;SDS011;16399;51.686;8.684;2023-02-16T11:49:49;22.67;;;12.75;;
29422;SDS011;16399;51.686;8.684;2023-02-16T11:53:19;26.42;;;13.13;;
29422;SDS011;16399;51.686;8.684;2023-02-16T11:56:25;23.38;;;13.58;;
29422;SDS011;16399;51.686;8.684;2023-02-16T11:59:31;25.45;;;12.90;;
29422;SDS011;16399;51.686;8.684;2023-02-16T12:06:02;26.75;;;13.10;;
29422;SDS011;16399;51.686;8.684;2023-02-16T12:09:20;28.02;;;15.23;;
29422;SDS011;16399;51.686;8.684;2023-02-16T12:12:36;25.72;;;13.80;;
29422;SDS011;16399;51.686;8.684;2023-02-16T12:15:58;24.85;;;13.83;;
29422;SDS011;16399;51.686;8.684;2023-02-16T12:19:19;25.27;;;14.70;;
29422;SDS011;16399;51.686;8.684;2023-02-16T12:22:36;26.10;;;13.90;;
29422;SDS011;16399;51.686;8.684;2023-02-16T12:26:03;25.63;;;14.00;;
29422;SDS011;16399;51.686;8.684;2023-02-16T12:29:54;26.23;;;13.60;;
29422;SDS011;16399;51.686;8.684;2023-02-16T12:32:39;23.60;;;12.07;;
29422;SDS011;16399;51.686;8.684;2023-02-16T12:39:38;24.70;;;13.20;;
29422;SDS011;16399;51.686;8.684;2023-02-16T12:46:23;23.00;;;12.47;;
29422;SDS011;16399;51.686;8.684;2023-02-16T12:49:24;19.50;;;11.83;;
29422;SDS011;16399;51.686;8.684;2023-02-16T12:55:38;26.20;;;13.68;;
29422;SDS011;16399;51.686;8.684;2023-02-16T12:58:43;19.37;;;11.68;;
29422;SDS011;16399;51.686;8.684;2023-02-16T13:01:50;21.17;;;11.80;;
29422;SDS011;16399;51.686;8.684;2023-02-16T13:04:57;20.32;;;12.20;;
29422;SDS011;16399;51.686;8.684;2023-02-16T13:08:05;23.77;;;12.88;;
29422;SDS011;16399;51.686;8.684;2023-02-16T13:17:49;21.37;;;12.63;;
29422;SDS011;16399;51.686;8.684;2023-02-16T13:21:01;21.65;;;12.35;;
29422;SDS011;16399;51.686;8.684;2023-02-16T13:24:08;22.75;;;13.83;;
29422;SDS011;16399;51.686;8.684;2023-02-16T13:27:22;29.20;;;13.80;;
29422;SDS011;16399;51.686;8.684;2023-02-16T13:37:23;25.53;;;15.13;;
29422;SDS011;16399;51.686;8.684;2023-02-16T13:40:33;23.40;;;14.25;;
29422;SDS011;16399;51.686;8.684;2023-02-16T13:46:57;28.00;;;15.10;;
29422;SDS011;16399;51.686;8.684;2023-02-16T13:50:03;30.48;;;15.13;;
29422;SDS011;16399;51.686;8.684;2023-02-16T13:53:10;25.00;;;14.80;;
29422;SDS011;16399;51.686;8.684;2023-02-16T14:02:50;27.13;;;15.65;;
29422;SDS011;16399;51.686;8.684;2023-02-16T14:12:39;29.02;;;15.58;;
29422;SDS011;16399;51.686;8.684;2023-02-16T14:15:51;30.52;;;15.68;;
29422;SDS011;16399;51.686;8.684;2023-02-16T14:18:57;26.67;;;16.07;;
29422;SDS011;16399;51.686;8.684;2023-02-16T14:22:07;24.70;;;14.70;;
29422;SDS011;16399;51.686;8.684;2023-02-16T14:31:40;27.37;;;14.45;;
29422;SDS011;16399;51.686;8.684;2023-02-16T14:34:51;24.18;;;13.80;;
29422;SDS011;16399;51.686;8.684;2023-02-16T14:41:30;24.85;;;14.43;;
29422;SDS011;16399;51.686;8.684;2023-02-16T14:44:33;30.60;;;14.68;;
29422;SDS011;16399;51.686;8.684;2023-02-16T14:57:17;24.07;;;14.15;;
29422;SDS011;16399;51.686;8.684;2023-02-16T15:03:41;22.67;;;13.88;;
29422;SDS011;16399;51.686;8.684;2023-02-16T15:06:49;26.75;;;15.13;;
29422;SDS011;16399;51.686;8.684;2023-02-16T15:09:53;26.17;;;15.32;;
29422;SDS011;16399;51.686;8.684;2023-02-16T15:12:57;25.15;;;15.15;;
29422;SDS011;16399;51.686;8.684;2023-02-16T15:15:59;22.60;;;13.93;;
29422;SDS011;16399;51.686;8.684;2023-02-16T15:19:07;29.02;;;14.68;;
29422;SDS011;16399;51.686;8.684;2023-02-16T15:22:16;28.98;;;15.10;;
29422;SDS011;16399;51.686;8.684;2023-02-16T15:28:34;24.80;;;13.83;;
29422;SDS011;16399;51.686;8.684;2023-02-16T15:31:37;27.42;;;14.15;;
29422;SDS011;16399;51.686;8.684;2023-02-16T15:34:39;27.73;;;15.03;;
29422;SDS011;16399;51.686;8.684;2023-02-16T15:37:42;23.55;;;13.98;;
29422;SDS011;16399;51.686;8.684;2023-02-16T15:40:44;26.90;;;14.43;;
29422;SDS011;16399;51.686;8.684;2023-02-16T15:43:47;24.75;;;14.58;;
29422;SDS011;16399;51.686;8.684;2023-02-16T15:46:51;23.55;;;14.28;;
29422;SDS011;16399;51.686;8.684;2023-02-16T15:49:57;23.77;;;13.93;;
29422;SDS011;16399;51.686;8.684;2023-02-16T15:53:02;38.45;;;19.92;;
29422;SDS011;16399;51.686;8.684;2023-02-16T15:56:21;28.47;;;17.05;;
29422;SDS011;16399;51.686;8.684;2023-02-16T15:59:46;30.43;;;15.85;;
29422;SDS011;16399;51.686;8.684;2023-02-16T16:02:52;27.98;;;15.40;;
29422;SDS011;16399;51.686;8.684;2023-02-16T16:09:02;27.93;;;14.15;;
29422;SDS011;16399;51.686;8.684;2023-02-16T16:12:10;26.65;;;15.20;;
29422;SDS011;16399;51.686;8.684;2023-02-16T16:15:16;29.30;;;14.85;;
29422;SDS011;16399;51.686;8.684;2023-02-16T16:21:51;28.47;;;16.05;;
29422;SDS011;16399;51.686;8.684;2023-02-16T16:24:55;29.40;;;15.93;;
29422;SDS011;16399;51.686;8.684;2023-02-16T16:27:57;27.60;;;16.42;;
29422;SDS011;16399;51.686;8.684;2023-02-16T16:31:07;30.43;;;16.20;;
29422;SDS011;16399;51.686;8.684;2023-02-16T16:34:30;29.07;;;16.80;;
29422;SDS011;16399;51.686;8.684;2023-02-16T16:37:40;29.55;;;15.75;;
29422;SDS011;16399;51.686;8.684;2023-02-16T16:40:42;31.62;;;17.52;;
29422;SDS011;16399;51.686;8.684;2023-02-16T16:43:55;28.95;;;16.60;;
29422;SDS011;16399;51.686;8.684;2023-02-16T16:46:55;30.85;;;17.95;;
29422;SDS011;16399;51.686;8.684;2023-02-16T16:49:59;29.92;;;17.27;;
29422;SDS011;16399;51.686;8.684;2023-02-16T16:56:35;31.62;;;16.77;;
29422;SDS011;16399;51.686;8.684;2023-02-16T16:59:39;34.30;;;17.73;;
29422;SDS011;16399;51.686;8.684;2023-02-16T17:02:41;30.65;;;17.17;;
29422;SDS011;16399;51.686;8.684;2023-02-16T17:05:44;29.65;;;16.85;;
29422;SDS011;16399;51.686;8.684;2023-02-16T17:08:46;28.90;;;16.37;;
29422;SDS011;16399;51.686;8.684;2023-02-16T17:11:49;30.90;;;17.55;;
29422;SDS011;16399;51.686;8.684;2023-02-16T17:14:51;34.13;;;17.12;;
29422;SDS011;16399;51.686;8.684;2023-02-16T17:17:54;76.53;;;34.43;;
29422;SDS011;16399;51.686;8.684;2023-02-16T17:20:57;55.38;;;26.20;;
29422;SDS011;16399;51.686;8.684;2023-02-16T17:24:00;40.80;;;21.05;;
29422;SDS011;16399;51.686;8.684;2023-02-16T17:27:02;33.50;;;17.20;;
29422;SDS011;16399;51.686;8.684;2023-02-16T17:30:04;31.10;;;15.90;;
29422;SDS011;16399;51.686;8.684;2023-02-16T17:33:07;28.60;;;16.52;;
29422;SDS011;16399;51.686;8.684;2023-02-16T17:36:11;27.55;;;14.90;;
29422;SDS011;16399;51.686;8.684;2023-02-16T17:42:16;27.87;;;14.78;;
29422;SDS011;16399;51.686;8.684;2023-02-16T17:45:21;26.35;;;14.38;;
29422;SDS011;16399;51.686;8.684;2023-02-16T17:48:23;24.67;;;14.07;;
29422;SDS011;16399;51.686;8.684;2023-02-16T17:51:28;23.77;;;14.20;;
29422;SDS011;16399;51.686;8.684;2023-02-16T17:54:32;24.90;;;14.17;;
29422;SDS011;16399;51.686;8.684;2023-02-16T17:57:35;27.00;;;14.65;;
29422;SDS011;16399;51.686;8.684;2023-02-16T18:00:37;25.10;;;13.93;;
29422;SDS011;16399;51.686;8.684;2023-02-16T18:03:40;25.25;;;14.73;;
29422;SDS011;16399;51.686;8.684;2023-02-16T18:06:43;23.18;;;13.83;;
29422;SDS011;16399;51.686;8.684;2023-02-16T18:09:45;28.20;;;13.88;;
29422;SDS011;16399;51.686;8.684;2023-02-16T18:12:48;25.55;;;16.07;;
29422;SDS011;16399;51.686;8.684;2023-02-16T18:15:50;25.68;;;14.90;;
29422;SDS011;16399;51.686;8.684;2023-02-16T18:18:52;26.12;;;14.18;;
29422;SDS011;16399;51.686;8.684;2023-02-16T18:21:56;27.23;;;13.90;;
29422;SDS011;16399;51.686;8.684;2023-02-16T18:24:59;27.65;;;13.13;;
29422;SDS011;16399;51.686;8.684;2023-02-16T18:28:01;23.07;;;12.80;;
29422;SDS011;16399;51.686;8.684;2023-02-16T18:31:04;19.85;;;11.88;;
29422;SDS011;16399;51.686;8.684;2023-02-16T18:34:07;22.37;;;12.43;;
29422;SDS011;16399;51.686;8.684;2023-02-16T18:37:10;18.98;;;11.73;;
29422;SDS011;16399;51.686;8.684;2023-02-16T18:40:14;19.85;;;11.48;;
29422;SDS011;16399;51.686;8.684;2023-02-16T18:43:19;18.92;;;11.90;;
29422;SDS011;16399;51.686;8.684;2023-02-16T18:46:22;21.07;;;11.10;;
29422;SDS011;16399;51.686;8.684;2023-02-16T18:49:24;20.57;;;10.70;;
29422;SDS011;16399;51.686;8.684;2023-02-16T18:52:26;16.25;;;10.15;;
29422;SDS011;16399;51.686;8.684;2023-02-16T18:55:29;20.68;;;10.50;;
29422;SDS011;16399;51.686;8.684;2023-02-16T18:58:35;17.90;;;10.58;;
29422;SDS011;16399;51.686;8.684;2023-02-16T19:01:37;20.35;;;10.85;;
29422;SDS011;16399;51.686;8.684;2023-02-16T19:04:40;17.60;;;10.15;;
29422;SDS011;16399;51.686;8.684;2023-02-16T19:07:42;17.50;;;9.80;;
29422;SDS011;16399;51.686;8.684;2023-02-16T19:10:45;22.13;;;10.28;;
29422;SDS011;16399;51.686;8.684;2023-02-16T19:13:47;17.02;;;9.33;;
29422;SDS011;16399;51.686;8.684;2023-02-16T19:16:49;19.02;;;9.55;;
29422;SDS011;16399;51.686;8.684;2023-02-16T19:19:51;18.12;;;9.65;;
29422;SDS011;16399;51.686;8.684;2023-02-16T19:22:54;22.55;;;9.40;;
29422;SDS011;16399;51.686;8.684;2023-02-16T19:25:56;20.35;;;9.40;;
29422;SDS011;16399;51.686;8.684;2023-02-16T19:28:58;18.15;;;9.20;;
29422;SDS011;16399;51.686;8.684;2023-02-16T19:32:01;16.52;;;8.60;;
29422;SDS011;16399;51.686;8.684;2023-02-16T19:35:04;17.67;;;8.70;;
29422;SDS011;16399;51.686;8.684;2023-02-16T19:38:06;17.17;;;8.93;;
29422;SDS011;16399;51.686;8.684;2023-02-16T19:41:16;16.80;;;8.78;;
29422;SDS011;16399;51.686;8.684;2023-02-16T19:44:29;16.95;;;8.68;;
29422;SDS011;16399;51.686;8.684;2023-02-16T19:47:33;16.82;;;9.23;;
29422;SDS011;16399;51.686;8.684;2023-02-16T19:50:35;14.60;;;8.15;;
29422;SDS011;16399;51.686;8.684;2023-02-16T19:53:38;17.50;;;8.25;;
29422;SDS011;16399;51.686;8.684;2023-02-16T19:56:41;14.65;;;7.53;;
29422;SDS011;16399;51.686;8.684;2023-02-16T19:59:44;15.05;;;7.92;;
29422;SDS011;16399;51.686;8.684;2023-02-16T20:02:46;14.98;;;8.00;;
29422;SDS011;16399;51.686;8.684;2023-02-16T20:05:48;18.60;;;7.67;;
29422;SDS011;16399;51.686;8.684;2023-02-16T20:08:51;15.98;;;8.85;;
29422;SDS011;16399;51.686;8.684;2023-02-16T20:14:57;15.43;;;8.03;;
29422;SDS011;16399;51.686;8.684;2023-02-16T20:17:59;17.10;;;8.00;;
29422;SDS011;16399;51.686;8.684;2023-02-16T20:21:03;15.00;;;8.15;;